createdAt,value
2022-08-25T00:00:57.695Z,98173.72
2022-08-25T00:06:05.653Z,98186.03
2022-08-25T00:11:14.664Z,98189.66
2022-08-25T00:16:22.046Z,98180.78
2022-08-25T00:21:29.098Z,98190.88
2022-08-25T00:26:33.556Z,98186.91
2022-08-25T00:31:39.312Z,98197.25
2022-08-25T00:36:47.228Z,98200.69
2022-08-25T00:41:54.164Z,98210.16
2022-08-25T00:47:01.965Z,98197.31
2022-08-25T00:52:12.702Z,98191.47
2022-08-25T00:57:33.945Z,98196.75
2022-08-25T01:02:40.345Z,98197.31
2022-08-25T01:07:47.146Z,98208.31
2022-08-25T01:12:54.396Z,98198.75
2022-08-25T01:17:59.834Z,98191.34
2022-08-25T01:23:06.394Z,98197.03
2022-08-25T01:28:11.155Z,98198.75
2022-08-25T01:33:17.188Z,98203.19
2022-08-25T01:38:23.185Z,98201.59
2022-08-25T01:43:38.181Z,98198.47
2022-08-25T01:48:42.380Z,98207.19
2022-08-25T01:53:48.447Z,98216.44
2022-08-25T01:58:52.671Z,98225.31
2022-08-25T02:03:58.310Z,98230.41
2022-08-25T02:09:09.094Z,98237.38
2022-08-25T02:14:16.894Z,98224.66
2022-08-25T02:19:24.318Z,98218.81
2022-08-25T02:24:30.481Z,98215.06
2022-08-25T02:29:34.943Z,98210.34
2022-08-25T02:34:41.141Z,98191.22
2022-08-25T02:39:46.775Z,98198.06
2022-08-25T02:44:51.416Z,98204.44
2022-08-25T02:49:56.784Z,98209.84
2022-08-25T02:55:04.073Z,98217.69
2022-08-25T03:00:10.879Z,98223.03
2022-08-25T03:05:17.533Z,98222.31
2022-08-25T03:10:23.426Z,98221.03
2022-08-25T03:15:30.516Z,98225.25
2022-08-25T03:20:35.986Z,98213.25
2022-08-25T03:26:01.202Z,98217.59
2022-08-25T03:31:06.829Z,98213.28
2022-08-25T03:36:12.257Z,98210.72
2022-08-25T03:41:23.012Z,98196.63
2022-08-25T03:46:30.615Z,98196.97
2022-08-25T03:51:41.622Z,98209.56
2022-08-25T03:56:47.823Z,98220.16
2022-08-25T04:01:55.109Z,98206.19
2022-08-25T04:07:00.077Z,98203.56
2022-08-25T04:12:06.644Z,98211.28
2022-08-25T04:17:11.292Z,98204.34
2022-08-25T04:22:15.928Z,98206.56
2022-08-25T04:27:21.586Z,98204.38
2022-08-25T04:32:25.867Z,98199.75
2022-08-25T04:37:30.113Z,98212.63
2022-08-25T04:42:35.839Z,98204.97
2022-08-25T04:47:41.290Z,98200.53
2022-08-25T04:52:45.500Z,98198.16
2022-08-25T04:57:51.481Z,98188.25
2022-08-25T05:02:55.912Z,98181.59
2022-08-25T05:08:00.710Z,98180.09
2022-08-25T05:13:06.725Z,98182.13
2022-08-25T05:18:11.193Z,98187.75
2022-08-25T05:23:15.707Z,98186.34
2022-08-25T05:28:23.025Z,98198.88
2022-08-25T05:33:27.697Z,98191.66
2022-08-25T05:38:37.725Z,98188.75
2022-08-25T05:43:45.868Z,98178.38
2022-08-25T05:48:51.185Z,98169.31
2022-08-25T05:53:55.608Z,98165.91
2022-08-25T05:59:04.975Z,98174.25
2022-08-25T06:04:12.405Z,98173.38
2022-08-25T06:09:16.793Z,98165.66
2022-08-25T06:14:22.587Z,98159.34
2022-08-25T06:19:27.301Z,98161.00
2022-08-25T06:24:31.600Z,98157.81
2022-08-25T06:29:37.342Z,98154.75
2022-08-25T06:34:42.745Z,98157.09
2022-08-25T06:39:47.757Z,98164.34
2022-08-25T06:44:53.533Z,98163.78
2022-08-25T06:49:58.362Z,98159.97
2022-08-25T06:55:02.867Z,98150.25
2022-08-25T07:00:11.360Z,98150.34
2022-08-25T07:05:27.269Z,98155.16
2022-08-25T07:10:38.338Z,98145.81
2022-08-25T07:15:45.222Z,98157.00
2022-08-25T07:20:52.023Z,98160.53
2022-08-25T07:25:57.396Z,98159.47
2022-08-25T07:31:03.348Z,98156.34
2022-08-25T07:36:11.694Z,98153.78
2022-08-25T07:41:17.613Z,98146.38
2022-08-25T07:46:23.643Z,98152.78
2022-08-25T07:51:28.377Z,98145.28
2022-08-25T07:56:34.794Z,98163.63
2022-08-25T08:01:42.900Z,98161.47
2022-08-25T08:06:47.834Z,98157.75
2022-08-25T08:11:53.815Z,98160.44
2022-08-25T08:17:00.483Z,98156.59
2022-08-25T08:22:07.565Z,98153.19
2022-08-25T08:27:13.953Z,98160.63
2022-08-25T08:32:19.721Z,98155.78
2022-08-25T08:37:28.008Z,98149.19
2022-08-25T08:42:57.996Z,98140.19
2022-08-25T08:48:50.881Z,98140.91
2022-08-25T08:54:02.911Z,98145.97
2022-08-25T08:59:13.053Z,98136.81
2022-08-25T09:04:28.641Z,98136.38
2022-08-25T09:09:36.224Z,98138.13
2022-08-25T09:14:58.705Z,98133.78
2022-08-25T09:20:27.433Z,98135.91
2022-08-25T09:25:52.342Z,98118.53
2022-08-25T09:31:02.921Z,98126.47
2022-08-25T09:36:09.566Z,98129.84
2022-08-25T09:41:19.535Z,98128.41
2022-08-25T09:46:29.208Z,98117.06
2022-08-25T09:51:42.839Z,98113.63
2022-08-25T09:56:52.469Z,98110.19
2022-08-25T10:01:59.918Z,98093.47
2022-08-25T10:07:32.206Z,98093.03
2022-08-25T10:12:42.937Z,98092.56
2022-08-25T10:17:47.553Z,98091.22
2022-08-25T10:23:11.834Z,98083.94
2022-08-25T10:28:31.843Z,98081.84
2022-08-25T10:33:51.325Z,98071.59
2022-08-25T10:39:01.720Z,98066.81
2022-08-25T10:44:38.869Z,98069.06
2022-08-25T10:49:50.217Z,98058.56
2022-08-25T10:55:07.746Z,98053.22
2022-08-25T11:00:17.085Z,98048.38
2022-08-25T11:05:31.848Z,98040.72
2022-08-25T11:10:47.938Z,98031.69
2022-08-25T11:16:16.548Z,98040.03
2022-08-25T11:21:32.788Z,98031.03
2022-08-25T11:26:52.526Z,98020.81
2022-08-25T11:31:59.702Z,98024.34
2022-08-25T11:37:20.871Z,98019.00
2022-08-25T11:42:45.520Z,98009.38
2022-08-25T11:48:13.638Z,97999.66
2022-08-25T11:53:28.162Z,97997.84
2022-08-25T11:58:49.838Z,97997.16
2022-08-25T12:04:14.966Z,97987.84
2022-08-25T12:09:22.857Z,97976.53
2022-08-25T12:14:49.197Z,97980.69
2022-08-25T12:20:00.510Z,97979.25
2022-08-25T12:25:14.551Z,97985.00
2022-08-25T12:30:27.613Z,97973.88
2022-08-25T12:35:34.134Z,97970.75
2022-08-25T12:40:58.341Z,97955.91
2022-08-25T12:46:39.433Z,97959.22
2022-08-25T12:51:59.007Z,97968.59
2022-08-25T12:57:24.975Z,97961.34
2022-08-25T13:03:27.048Z,97953.19
2022-08-25T13:09:40.459Z,97953.91
2022-08-25T13:14:49.669Z,97945.63
2022-08-25T13:20:14.565Z,97940.22
2022-08-25T13:25:32.308Z,97933.00
2022-08-25T13:30:39.113Z,97934.38
2022-08-25T13:36:11.017Z,97922.97
2022-08-25T13:41:28.756Z,97924.19
2022-08-25T13:46:35.605Z,97924.53
2022-08-25T13:51:53.689Z,97909.00
2022-08-25T13:57:12.565Z,97920.50
2022-08-25T14:02:46.085Z,97912.97
2022-08-25T14:08:15.709Z,97908.00
2022-08-25T14:13:33.277Z,97898.19
2022-08-25T14:18:48.393Z,97904.44
2022-08-25T14:23:54.689Z,97899.78
2022-08-25T14:28:59.543Z,97904.59
2022-08-25T14:34:12.323Z,97894.97
2022-08-25T14:39:17.376Z,97886.41
2022-08-25T14:44:22.491Z,97884.41
2022-08-25T14:49:33.730Z,97881.31
2022-08-25T14:54:38.150Z,97878.34
2022-08-25T14:59:43.381Z,97872.94
2022-08-25T15:04:53.914Z,97872.19
2022-08-25T15:09:58.696Z,97867.06
2022-08-25T15:15:03.945Z,97862.53
2022-08-25T15:20:12.473Z,97858.53
2022-08-25T15:25:18.185Z,97859.16
2022-08-25T15:30:30.714Z,97859.13
2022-08-25T15:35:37.150Z,97843.72
2022-08-25T15:40:41.950Z,97844.41
2022-08-25T15:45:46.546Z,97851.16
2022-08-25T15:50:56.837Z,97834.81
2022-08-25T15:56:05.705Z,97839.59
2022-08-25T16:01:14.708Z,97833.75
2022-08-25T16:06:21.369Z,97840.34
2022-08-25T16:11:29.442Z,97833.53
2022-08-25T16:16:35.533Z,97838.25
2022-08-25T16:21:47.065Z,97835.72
2022-08-25T16:26:55.899Z,97831.06
2022-08-25T16:32:03.398Z,97827.94
2022-08-25T16:37:09.736Z,97832.84
2022-08-25T16:42:15.164Z,97821.72
2022-08-25T16:47:20.426Z,97820.03
2022-08-25T16:52:48.994Z,97823.03
2022-08-25T16:57:55.092Z,97817.22
2022-08-25T17:03:04.748Z,97823.41
2022-08-25T17:08:28.062Z,97827.59
2022-08-25T17:13:32.982Z,97821.09
2022-08-25T17:18:38.601Z,97825.78
2022-08-25T17:23:46.296Z,97809.44
2022-08-25T17:28:50.731Z,97820.31
2022-08-25T17:33:55.156Z,97818.97
2022-08-25T17:39:00.779Z,97817.84
2022-08-25T17:44:06.654Z,97807.84
2022-08-25T17:49:11.874Z,97818.28
2022-08-25T17:54:17.864Z,97815.44
2022-08-25T17:59:22.163Z,97814.81
2022-08-25T18:04:29.551Z,97821.09
2022-08-25T18:09:35.451Z,97827.53
2022-08-25T18:14:39.776Z,97827.69
2022-08-25T18:19:44.143Z,97832.47
2022-08-25T18:24:50.300Z,97838.41
2022-08-25T18:29:54.686Z,97844.25
2022-08-25T18:34:59.196Z,97847.78
2022-08-25T18:40:24.746Z,97847.47
2022-08-25T18:45:33.189Z,97850.72
2022-08-25T18:50:42.466Z,97850.19
2022-08-25T18:55:50.076Z,97858.16
2022-08-25T19:00:54.635Z,97857.28
2022-08-25T19:06:00.088Z,97856.75
2022-08-25T19:11:07.621Z,97856.38
2022-08-25T19:16:17.678Z,97857.97
2022-08-25T19:21:24.818Z,97865.31
2022-08-25T19:26:30.774Z,97875.25
2022-08-25T19:31:35.521Z,97875.97
2022-08-25T19:36:40.323Z,97877.66
2022-08-25T19:41:48.168Z,97878.31
2022-08-25T19:46:53.289Z,97885.13
2022-08-25T19:51:59.110Z,97892.03
2022-08-25T19:57:07.773Z,97892.78
2022-08-25T20:02:19.751Z,97892.28
2022-08-25T20:07:29.166Z,97898.63
2022-08-25T20:12:35.608Z,97912.56
2022-08-25T20:17:41.517Z,97908.75
2022-08-25T20:22:47.585Z,97914.56
2022-08-25T20:27:56.546Z,97917.31
2022-08-25T20:33:01.572Z,97912.97
2022-08-25T20:38:06.371Z,97918.50
2022-08-25T20:43:12.426Z,97917.25
2022-08-25T20:48:16.765Z,97916.00
2022-08-25T20:53:21.171Z,97919.78
2022-08-25T20:58:30.924Z,97929.75
2022-08-25T21:03:35.280Z,97925.88
2022-08-25T21:08:45.199Z,97922.31
2022-08-25T21:13:56.099Z,97924.03
2022-08-25T21:19:01.589Z,97934.66
2022-08-25T21:24:09.794Z,97932.97
2022-08-25T21:29:15.965Z,97936.41
2022-08-25T21:34:22.078Z,97943.56
2022-08-25T21:39:29.637Z,97942.22
2022-08-25T21:44:38.008Z,97950.69
2022-08-25T21:49:42.367Z,97950.38
2022-08-25T21:54:46.783Z,97952.38
2022-08-25T21:59:54.901Z,97948.28
2022-08-25T22:04:59.412Z,97943.88
2022-08-25T22:10:04.678Z,97953.72
2022-08-25T22:15:13.595Z,97949.97
2022-08-25T22:20:20.281Z,97951.47
2022-08-25T22:25:25.074Z,97961.69
2022-08-25T22:30:32.118Z,97960.78
2022-08-25T22:35:38.074Z,97959.56
2022-08-25T22:40:45.308Z,97960.88
2022-08-25T22:46:02.583Z,97961.56
2022-08-25T22:51:11.423Z,97962.22
2022-08-25T22:56:19.465Z,97956.78
2022-08-25T23:01:26.401Z,97955.59
2022-08-25T23:06:31.710Z,97953.38
2022-08-25T23:11:38.641Z,97947.69
2022-08-25T23:16:45.016Z,97952.06
2022-08-25T23:22:06.811Z,97950.63
2022-08-25T23:27:13.471Z,97950.44
2022-08-25T23:32:20.422Z,97953.31
2022-08-25T23:37:25.028Z,97946.63
2022-08-25T23:42:31.115Z,97953.56
2022-08-25T23:47:38.550Z,97952.75
2022-08-25T23:52:43.753Z,97944.59
2022-08-25T23:57:51.675Z,97941.94
